createdAt,value
2023-01-30T00:00:09.629Z,13.92
2023-01-30T00:01:09.674Z,13.92
2023-01-30T00:02:09.640Z,13.92
2023-01-30T00:03:09.683Z,13.93
2023-01-30T00:04:09.637Z,13.93
2023-01-30T00:05:09.612Z,13.95
2023-01-30T00:06:09.574Z,13.95
2023-01-30T00:07:09.589Z,13.95
2023-01-30T00:08:09.544Z,13.95
2023-01-30T00:09:09.528Z,13.97
2023-01-30T00:10:09.524Z,13.96
2023-01-30T00:11:09.538Z,13.96
2023-01-30T00:12:09.514Z,13.97
2023-01-30T00:13:09.482Z,13.97
2023-01-30T00:14:10.290Z,13.97
2023-01-30T00:15:09.497Z,13.96
2023-01-30T00:16:09.446Z,13.97
2023-01-30T00:17:09.446Z,13.96
2023-01-30T00:18:09.429Z,13.97
2023-01-30T00:19:09.414Z,13.99
2023-01-30T00:20:09.400Z,13.99
2023-01-30T00:21:09.400Z,13.99
2023-01-30T00:22:09.384Z,13.99
2023-01-30T00:23:09.392Z,13.99
2023-01-30T00:24:09.373Z,14.03
2023-01-30T00:25:09.615Z,14.00
2023-01-30T00:26:09.356Z,14.03
2023-01-30T00:27:09.331Z,14.03
2023-01-30T00:28:09.342Z,14.03
2023-01-30T00:29:09.314Z,14.03
2023-01-30T00:30:09.290Z,14.04
2023-01-30T00:31:09.311Z,14.03
2023-01-30T00:32:09.286Z,14.05
2023-01-30T00:33:09.283Z,14.04
2023-01-30T00:34:09.241Z,14.05
2023-01-30T00:35:09.237Z,14.05
2023-01-30T00:36:09.261Z,14.07
2023-01-30T00:37:09.216Z,14.08
2023-01-30T00:38:09.230Z,14.07
2023-01-30T00:39:09.221Z,14.08
2023-01-30T00:40:09.185Z,14.08
2023-01-30T00:41:09.184Z,14.08
2023-01-30T00:42:09.166Z,14.10
2023-01-30T00:43:09.156Z,14.10
2023-01-30T00:44:09.141Z,14.10
2023-01-30T00:45:15.097Z,14.11
2023-01-30T00:46:09.195Z,14.11
2023-01-30T00:47:09.216Z,14.11
2023-01-30T00:48:09.087Z,14.12
2023-01-30T00:49:09.104Z,14.14
2023-01-30T00:50:09.138Z,14.12
2023-01-30T00:51:09.114Z,14.15
2023-01-30T00:52:09.063Z,14.14
2023-01-30T00:53:09.078Z,14.15
2023-01-30T00:54:09.041Z,14.15
2023-01-30T00:55:09.115Z,14.15
2023-01-30T00:56:09.012Z,14.15
2023-01-30T00:57:09.057Z,14.17
2023-01-30T00:58:08.998Z,14.15
2023-01-30T00:59:09.256Z,14.15
2023-01-30T01:00:08.986Z,14.17
2023-01-30T01:01:08.969Z,14.17
2023-01-30T01:02:09.029Z,14.17
2023-01-30T01:03:08.999Z,14.17
2023-01-30T01:04:08.997Z,14.17
2023-01-30T01:05:08.919Z,14.18
2023-01-30T01:06:08.905Z,14.18
2023-01-30T01:07:08.907Z,14.20
2023-01-30T01:08:08.893Z,14.20
2023-01-30T01:09:08.895Z,14.22
2023-01-30T01:10:08.876Z,14.20
2023-01-30T01:11:08.857Z,14.22
2023-01-30T01:12:08.826Z,14.23
2023-01-30T01:13:08.828Z,14.22
2023-01-30T01:14:08.852Z,14.23
2023-01-30T01:15:08.802Z,14.25
2023-01-30T01:16:08.838Z,14.23
2023-01-30T01:17:08.779Z,14.23
2023-01-30T01:18:08.775Z,14.26
2023-01-30T01:19:08.767Z,14.26
2023-01-30T01:20:08.739Z,14.25
2023-01-30T01:21:08.745Z,14.25
2023-01-30T01:22:08.725Z,14.26
2023-01-30T01:23:08.714Z,14.28
2023-01-30T01:24:08.702Z,14.25
2023-01-30T01:25:08.717Z,14.26
2023-01-30T01:26:08.735Z,14.28
2023-01-30T01:27:08.730Z,14.29
2023-01-30T01:28:08.668Z,14.29
2023-01-30T01:29:08.664Z,14.30
2023-01-30T01:30:08.657Z,14.29
2023-01-30T01:31:08.720Z,14.29
2023-01-30T01:32:08.710Z,14.30
2023-01-30T01:33:08.637Z,14.30
2023-01-30T01:34:08.599Z,14.32
2023-01-30T01:35:08.584Z,14.32
2023-01-30T01:36:08.566Z,14.30
2023-01-30T01:37:08.573Z,14.32
2023-01-30T01:38:08.563Z,14.30
2023-01-30T01:39:08.558Z,14.33
2023-01-30T01:40:08.510Z,14.33
2023-01-30T01:41:08.515Z,14.32
2023-01-30T01:42:09.992Z,14.33
2023-01-30T01:43:08.501Z,14.33
2023-01-30T01:44:15.332Z,14.35
2023-01-30T01:45:08.470Z,14.35
2023-01-30T01:46:08.535Z,14.36
2023-01-30T01:47:08.466Z,14.36
2023-01-30T01:48:08.442Z,14.36
2023-01-30T01:49:08.444Z,14.37
2023-01-30T01:50:08.449Z,14.37
2023-01-30T01:51:08.388Z,14.37
2023-01-30T01:52:10.371Z,14.41
2023-01-30T01:53:08.400Z,14.40
2023-01-30T01:54:08.347Z,14.40
2023-01-30T01:55:08.394Z,14.41
2023-01-30T01:56:08.341Z,14.43
2023-01-30T01:57:08.353Z,14.41
2023-01-30T01:58:08.306Z,14.43
2023-01-30T01:59:08.652Z,14.43
2023-01-30T02:00:08.309Z,14.43
2023-01-30T02:01:08.324Z,14.43
2023-01-30T02:02:08.278Z,14.44
2023-01-30T02:03:08.261Z,14.43
2023-01-30T02:04:08.250Z,14.44
2023-01-30T02:05:08.246Z,14.47
2023-01-30T02:06:08.223Z,14.45
2023-01-30T02:07:08.228Z,14.47
2023-01-30T02:08:08.215Z,14.45
2023-01-30T02:09:08.243Z,14.45
2023-01-30T02:10:08.190Z,14.47
2023-01-30T02:11:08.225Z,14.47
2023-01-30T02:12:08.161Z,14.48
2023-01-30T02:13:08.147Z,14.48
2023-01-30T02:14:08.135Z,14.48
2023-01-30T02:15:08.133Z,14.48
2023-01-30T02:16:08.121Z,14.48
2023-01-30T02:17:08.112Z,14.47
2023-01-30T02:18:08.114Z,14.48
2023-01-30T02:19:08.076Z,14.48
2023-01-30T02:20:08.084Z,14.48
2023-01-30T02:21:08.227Z,14.48
2023-01-30T02:22:08.037Z,14.48
2023-01-30T02:23:08.043Z,14.48
2023-01-30T02:24:08.014Z,14.50
2023-01-30T02:25:08.012Z,14.48
2023-01-30T02:26:08.033Z,14.50
2023-01-30T02:27:08.017Z,14.51
2023-01-30T02:28:07.995Z,14.53
2023-01-30T02:29:07.967Z,14.51
2023-01-30T02:30:07.968Z,14.53
2023-01-30T02:31:08.075Z,14.53
2023-01-30T02:32:07.946Z,14.53
2023-01-30T02:33:07.949Z,14.53
2023-01-30T02:34:07.945Z,14.53
2023-01-30T02:35:07.949Z,14.54
2023-01-30T02:36:07.899Z,14.54
2023-01-30T02:37:07.866Z,14.53
2023-01-30T02:38:07.891Z,14.54
2023-01-30T02:39:07.864Z,14.54
2023-01-30T02:40:07.923Z,14.54
2023-01-30T02:41:07.844Z,14.53
2023-01-30T02:42:07.828Z,14.55
2023-01-30T02:43:07.833Z,14.55
2023-01-30T02:44:07.795Z,14.55
2023-01-30T02:45:07.796Z,14.55
2023-01-30T02:46:07.889Z,14.58
2023-01-30T02:47:08.383Z,14.55
2023-01-30T02:48:07.773Z,14.58
2023-01-30T02:49:07.746Z,14.58
2023-01-30T02:50:07.739Z,14.58
2023-01-30T02:51:07.726Z,14.58
2023-01-30T02:52:07.713Z,14.59
2023-01-30T02:53:07.705Z,14.59
2023-01-30T02:54:07.716Z,14.59
2023-01-30T02:55:07.691Z,14.60
2023-01-30T02:56:07.706Z,14.60
2023-01-30T02:57:07.660Z,14.60
2023-01-30T02:58:07.652Z,14.60
2023-01-30T02:59:07.694Z,14.62
2023-01-30T03:00:07.600Z,14.62
2023-01-30T03:01:07.630Z,14.63
2023-01-30T03:02:07.651Z,14.62
2023-01-30T03:03:07.586Z,14.62
2023-01-30T03:04:07.585Z,14.63
2023-01-30T03:05:07.567Z,14.63
2023-01-30T03:06:07.553Z,14.63
2023-01-30T03:07:07.637Z,14.65
2023-01-30T03:08:07.570Z,14.63
2023-01-30T03:09:07.545Z,14.65
2023-01-30T03:10:07.501Z,14.65
2023-01-30T03:11:07.520Z,14.66
2023-01-30T03:12:07.481Z,14.66
2023-01-30T03:13:07.492Z,14.66
2023-01-30T03:14:07.479Z,14.68
2023-01-30T03:15:07.491Z,14.69
2023-01-30T03:16:07.558Z,14.68
2023-01-30T03:17:07.437Z,14.69
2023-01-30T03:18:07.418Z,14.69
2023-01-30T03:19:07.422Z,14.70
2023-01-30T03:20:07.409Z,14.69
2023-01-30T03:21:07.395Z,14.70
2023-01-30T03:22:07.385Z,14.70
2023-01-30T03:23:07.382Z,14.70
2023-01-30T03:24:07.426Z,14.72
2023-01-30T03:25:07.350Z,14.72
2023-01-30T03:26:07.315Z,14.73
2023-01-30T03:27:07.323Z,14.73
2023-01-30T03:28:07.325Z,14.72
2023-01-30T03:29:07.321Z,14.72
2023-01-30T03:30:07.310Z,14.73
2023-01-30T03:31:07.510Z,14.73
2023-01-30T03:32:07.261Z,14.73
2023-01-30T03:33:07.280Z,14.73
2023-01-30T03:34:07.268Z,14.73
2023-01-30T03:35:07.314Z,14.73
2023-01-30T03:36:07.222Z,14.73
2023-01-30T03:37:07.220Z,14.77
2023-01-30T03:38:07.203Z,14.77
2023-01-30T03:39:07.191Z,14.73
2023-01-30T03:40:07.166Z,14.77
2023-01-30T03:41:07.143Z,14.77
2023-01-30T03:42:07.154Z,14.77
2023-01-30T03:43:07.142Z,14.78
2023-01-30T03:44:07.129Z,14.78
2023-01-30T03:45:07.138Z,14.78
2023-01-30T03:46:07.114Z,14.78
2023-01-30T03:47:07.097Z,14.78
2023-01-30T03:48:07.115Z,14.79
2023-01-30T03:49:07.093Z,14.81
2023-01-30T03:50:07.053Z,14.81
2023-01-30T03:51:07.049Z,14.81
2023-01-30T03:52:07.045Z,14.82
2023-01-30T03:53:07.046Z,14.84
2023-01-30T03:54:07.004Z,14.84
2023-01-30T03:55:07.016Z,14.84
2023-01-30T03:56:07.078Z,14.84
2023-01-30T03:57:06.991Z,14.82
2023-01-30T03:58:06.979Z,14.84
2023-01-30T03:59:06.955Z,14.84
2023-01-30T04:00:06.955Z,14.85
2023-01-30T04:01:06.934Z,14.85
2023-01-30T04:02:06.962Z,14.85
2023-01-30T04:03:06.904Z,14.85
2023-01-30T04:04:06.906Z,14.86
2023-01-30T04:05:06.882Z,14.86
2023-01-30T04:06:06.888Z,14.88
2023-01-30T04:07:06.906Z,14.86
2023-01-30T04:08:06.869Z,14.88
2023-01-30T04:09:06.833Z,14.88
2023-01-30T04:10:06.846Z,14.88
2023-01-30T04:11:06.810Z,14.88
2023-01-30T04:12:06.818Z,14.88
2023-01-30T04:13:06.825Z,14.88
2023-01-30T04:14:06.812Z,14.91
2023-01-30T04:15:06.773Z,14.89
2023-01-30T04:16:06.758Z,14.89
2023-01-30T04:17:06.745Z,14.89
2023-01-30T04:18:06.765Z,14.91
2023-01-30T04:19:06.743Z,14.91
2023-01-30T04:20:06.745Z,14.91
2023-01-30T04:21:06.742Z,14.92
2023-01-30T04:22:06.695Z,14.92
2023-01-30T04:23:06.701Z,14.92
2023-01-30T04:24:06.688Z,14.92
2023-01-30T04:25:06.667Z,14.94
2023-01-30T04:26:06.676Z,14.92
2023-01-30T04:27:06.652Z,14.96
2023-01-30T04:28:06.655Z,14.94
2023-01-30T04:29:06.649Z,14.96
2023-01-30T04:30:06.619Z,14.96
2023-01-30T04:31:06.620Z,14.97
2023-01-30T04:32:06.580Z,14.96
2023-01-30T04:33:06.602Z,14.97
2023-01-30T04:34:06.575Z,14.97
2023-01-30T04:35:06.554Z,14.97
2023-01-30T04:36:06.564Z,14.96
2023-01-30T04:37:06.525Z,14.97
2023-01-30T04:38:06.530Z,14.97
2023-01-30T04:39:06.519Z,14.97
2023-01-30T04:40:06.537Z,14.96
2023-01-30T04:41:06.494Z,14.97
2023-01-30T04:42:06.463Z,14.97
2023-01-30T04:43:06.484Z,14.96
2023-01-30T04:44:06.461Z,14.96
2023-01-30T04:45:06.461Z,14.96
2023-01-30T04:46:06.496Z,14.96
2023-01-30T04:47:06.404Z,14.96
2023-01-30T04:48:06.402Z,14.97
2023-01-30T04:49:06.395Z,14.97
2023-01-30T04:50:06.389Z,14.96
2023-01-30T04:51:06.389Z,14.97
2023-01-30T04:52:06.375Z,14.97
2023-01-30T04:53:06.358Z,14.97
2023-01-30T04:54:06.335Z,14.96
2023-01-30T04:55:06.386Z,14.99
2023-01-30T04:56:06.324Z,14.99
2023-01-30T04:57:06.306Z,14.99
2023-01-30T04:58:06.299Z,14.99
2023-01-30T04:59:06.287Z,15.00
2023-01-30T05:00:06.273Z,15.00
2023-01-30T05:01:06.314Z,14.99
2023-01-30T05:02:06.358Z,15.00
2023-01-30T05:03:06.238Z,15.00
2023-01-30T05:04:06.248Z,15.00
2023-01-30T05:05:06.255Z,15.00
2023-01-30T05:06:06.231Z,15.00
2023-01-30T05:07:06.212Z,15.00
2023-01-30T05:08:06.188Z,15.02
2023-01-30T05:09:06.193Z,15.03
2023-01-30T05:10:06.167Z,15.02
2023-01-30T05:11:06.156Z,15.00
2023-01-30T05:12:06.132Z,15.02
2023-01-30T05:13:06.191Z,15.02
2023-01-30T05:14:06.132Z,15.03
2023-01-30T05:15:06.114Z,15.02
2023-01-30T05:16:06.116Z,15.03
2023-01-30T05:17:06.114Z,15.03
2023-01-30T05:18:06.075Z,15.04
2023-01-30T05:19:06.051Z,15.03
2023-01-30T05:20:06.059Z,15.04
2023-01-30T05:21:06.070Z,15.03
2023-01-30T05:22:06.033Z,15.02
2023-01-30T05:23:06.014Z,15.03
2023-01-30T05:24:05.990Z,15.03
2023-01-30T05:25:06.003Z,15.03
2023-01-30T05:26:06.004Z,15.03
2023-01-30T05:27:05.975Z,15.04
2023-01-30T05:28:05.979Z,15.03
2023-01-30T05:29:05.951Z,15.03
2023-01-30T05:30:05.943Z,15.04
2023-01-30T05:31:06.063Z,15.04
2023-01-30T05:32:05.927Z,15.04
2023-01-30T05:33:05.952Z,15.04
2023-01-30T05:34:05.896Z,15.06
2023-01-30T05:35:05.870Z,15.06
2023-01-30T05:36:05.868Z,15.06
2023-01-30T05:37:05.853Z,15.07
2023-01-30T05:38:05.864Z,15.06
2023-01-30T05:39:05.844Z,15.06
2023-01-30T05:40:05.835Z,15.07
2023-01-30T05:41:05.814Z,15.06
2023-01-30T05:42:05.802Z,15.07
2023-01-30T05:43:05.804Z,15.07
2023-01-30T05:44:05.817Z,15.07
2023-01-30T05:45:05.783Z,15.07
2023-01-30T05:46:05.763Z,15.07
2023-01-30T05:47:05.739Z,15.06
2023-01-30T05:48:05.729Z,15.06
2023-01-30T05:49:05.753Z,15.09
2023-01-30T05:50:05.756Z,15.06
2023-01-30T05:51:05.718Z,15.07
2023-01-30T05:52:05.699Z,15.09
2023-01-30T05:53:05.690Z,15.09
2023-01-30T05:54:05.721Z,15.10
2023-01-30T05:55:05.660Z,15.09
2023-01-30T05:56:05.663Z,15.10
2023-01-30T05:57:05.629Z,15.10
2023-01-30T05:58:05.634Z,15.10
2023-01-30T05:59:05.612Z,15.11
2023-01-30T06:00:05.621Z,15.11
2023-01-30T06:01:05.652Z,15.11
2023-01-30T06:02:05.576Z,15.11
2023-01-30T06:03:05.566Z,15.11
2023-01-30T06:04:05.595Z,15.14
2023-01-30T06:05:05.569Z,15.14
2023-01-30T06:06:05.563Z,15.11
2023-01-30T06:07:05.531Z,15.14
2023-01-30T06:08:05.522Z,15.11
2023-01-30T06:09:05.529Z,15.11
2023-01-30T06:10:05.498Z,15.14
2023-01-30T06:11:05.500Z,15.14
2023-01-30T06:12:05.476Z,15.14
2023-01-30T06:13:05.469Z,15.14
2023-01-30T06:14:05.457Z,15.14
2023-01-30T06:15:05.441Z,15.15
2023-01-30T06:16:05.484Z,15.14
2023-01-30T06:17:05.484Z,15.15
2023-01-30T06:18:05.426Z,15.15
2023-01-30T06:19:05.390Z,15.15
2023-01-30T06:20:05.377Z,15.15
2023-01-30T06:21:05.397Z,15.15
2023-01-30T06:22:05.369Z,15.15
2023-01-30T06:23:05.355Z,15.17
2023-01-30T06:24:05.348Z,15.15
2023-01-30T06:25:05.333Z,15.17
2023-01-30T06:26:08.038Z,15.17
2023-01-30T06:27:05.319Z,15.17
2023-01-30T06:28:05.283Z,15.17
2023-01-30T06:29:05.281Z,15.17
2023-01-30T06:30:05.286Z,15.18
2023-01-30T06:31:05.398Z,15.19
2023-01-30T06:32:05.262Z,15.19
2023-01-30T06:33:05.251Z,15.18
2023-01-30T06:34:05.257Z,15.19
2023-01-30T06:35:05.223Z,15.19
2023-01-30T06:36:05.206Z,15.18
2023-01-30T06:37:05.238Z,15.19
2023-01-30T06:38:05.180Z,15.21
2023-01-30T06:39:05.180Z,15.21
2023-01-30T06:40:05.163Z,15.21
2023-01-30T06:41:05.153Z,15.21
2023-01-30T06:42:05.149Z,15.21
2023-01-30T06:43:05.135Z,15.22
2023-01-30T06:44:05.128Z,15.22
2023-01-30T06:45:05.187Z,15.22
2023-01-30T06:46:05.102Z,15.24
2023-01-30T06:47:05.080Z,15.25
2023-01-30T06:48:05.087Z,15.24
2023-01-30T06:49:05.051Z,15.25
2023-01-30T06:50:05.053Z,15.25
2023-01-30T06:51:05.052Z,15.27
2023-01-30T06:52:05.035Z,15.27
2023-01-30T06:53:05.038Z,15.27
2023-01-30T06:54:05.028Z,15.28
2023-01-30T06:55:04.990Z,15.28
2023-01-30T06:56:04.980Z,15.28
2023-01-30T06:57:04.961Z,15.28
2023-01-30T06:58:04.979Z,15.28
2023-01-30T06:59:04.976Z,15.28
2023-01-30T07:00:04.949Z,15.28
2023-01-30T07:01:04.947Z,15.28
2023-01-30T07:02:04.995Z,15.29
2023-01-30T07:03:04.938Z,15.29
2023-01-30T07:04:04.927Z,15.29
2023-01-30T07:05:04.891Z,15.29
2023-01-30T07:06:04.868Z,15.31
2023-01-30T07:07:06.862Z,15.33
2023-01-30T07:08:04.868Z,15.33
2023-01-30T07:09:04.863Z,15.33
2023-01-30T07:10:09.071Z,15.31
2023-01-30T07:11:04.846Z,15.33
2023-01-30T07:12:04.829Z,15.35
2023-01-30T07:13:04.797Z,15.33
2023-01-30T07:14:06.366Z,15.35
2023-01-30T07:15:04.803Z,15.36
2023-01-30T07:16:04.768Z,15.35
2023-01-30T07:17:04.867Z,15.37
2023-01-30T07:18:04.763Z,15.37
2023-01-30T07:19:04.742Z,15.37
2023-01-30T07:20:04.752Z,15.37
2023-01-30T07:21:04.708Z,15.37
2023-01-30T07:22:04.723Z,15.37
2023-01-30T07:23:04.690Z,15.39
2023-01-30T07:24:04.687Z,15.40
2023-01-30T07:25:04.656Z,15.42
2023-01-30T07:26:04.667Z,15.43
2023-01-30T07:27:04.648Z,15.40
2023-01-30T07:28:04.642Z,15.42
2023-01-30T07:29:04.617Z,15.42
2023-01-30T07:30:05.001Z,15.40
2023-01-30T07:31:04.641Z,15.42
2023-01-30T07:32:04.691Z,15.43
2023-01-30T07:33:04.734Z,15.44
2023-01-30T07:34:04.655Z,15.44
2023-01-30T07:35:06.005Z,15.46
2023-01-30T07:36:04.589Z,15.46
2023-01-30T07:37:04.580Z,15.46
2023-01-30T07:38:04.577Z,15.47
2023-01-30T07:39:04.561Z,15.46
2023-01-30T07:40:04.632Z,15.46
2023-01-30T07:41:04.589Z,15.47
2023-01-30T07:42:04.506Z,15.46
2023-01-30T07:43:04.519Z,15.49
2023-01-30T07:44:04.516Z,15.49
2023-01-30T07:45:04.488Z,15.49
2023-01-30T07:46:04.490Z,15.47
2023-01-30T07:47:04.478Z,15.51
2023-01-30T07:48:04.524Z,15.52
2023-01-30T07:49:04.466Z,15.51
2023-01-30T07:50:04.437Z,15.51
2023-01-30T07:51:04.462Z,15.51
2023-01-30T07:52:04.449Z,15.52
2023-01-30T07:53:04.389Z,15.52
2023-01-30T07:54:04.378Z,15.52
2023-01-30T07:55:04.432Z,15.51
2023-01-30T07:56:04.367Z,15.54
2023-01-30T07:57:04.341Z,15.54
2023-01-30T07:58:04.340Z,15.55
2023-01-30T07:59:04.354Z,15.54
2023-01-30T08:00:04.341Z,15.55
2023-01-30T08:01:04.372Z,15.55
2023-01-30T08:02:04.306Z,15.55
2023-01-30T08:03:04.327Z,15.57
2023-01-30T08:04:04.284Z,15.55
2023-01-30T08:05:06.192Z,15.58
2023-01-30T08:06:04.352Z,15.59
2023-01-30T08:07:04.289Z,15.59
2023-01-30T08:08:04.349Z,15.59
2023-01-30T08:09:04.214Z,15.59
2023-01-30T08:10:04.207Z,15.61
2023-01-30T08:11:04.203Z,15.59
2023-01-30T08:12:04.176Z,15.62
2023-01-30T08:13:04.196Z,15.62
2023-01-30T08:14:04.197Z,15.62
2023-01-30T08:15:04.167Z,15.62
2023-01-30T08:16:04.153Z,15.62
2023-01-30T08:17:04.139Z,15.64
2023-01-30T08:18:04.137Z,15.64
2023-01-30T08:19:04.112Z,15.64
2023-01-30T08:20:04.117Z,15.65
2023-01-30T08:21:04.165Z,15.64
2023-01-30T08:22:04.093Z,15.65
2023-01-30T08:23:04.089Z,15.65
2023-01-30T08:24:04.072Z,15.65
2023-01-30T08:25:04.045Z,15.67
2023-01-30T08:26:04.092Z,15.65
2023-01-30T08:27:04.082Z,15.67
2023-01-30T08:28:04.025Z,15.67
2023-01-30T08:29:04.062Z,15.68
2023-01-30T08:30:03.972Z,15.68
2023-01-30T08:31:04.048Z,15.67
2023-01-30T08:32:04.002Z,15.68
2023-01-30T08:33:03.979Z,15.68
2023-01-30T08:34:03.989Z,15.70
2023-01-30T08:35:03.950Z,15.70
2023-01-30T08:36:03.931Z,15.70
2023-01-30T08:37:03.929Z,15.70
2023-01-30T08:38:03.941Z,15.68
2023-01-30T08:39:03.903Z,15.70
2023-01-30T08:40:03.876Z,15.70
2023-01-30T08:41:03.896Z,15.72
2023-01-30T08:42:03.885Z,15.72
2023-01-30T08:43:03.862Z,15.75
2023-01-30T08:44:03.855Z,15.75
2023-01-30T08:45:03.847Z,15.76
2023-01-30T08:46:03.859Z,15.75
2023-01-30T08:47:03.823Z,15.75
2023-01-30T08:48:03.804Z,15.75
2023-01-30T08:49:03.784Z,15.77
2023-01-30T08:50:03.765Z,15.77
2023-01-30T08:51:03.853Z,15.76
2023-01-30T08:52:03.761Z,15.76
2023-01-30T08:53:03.754Z,15.77
2023-01-30T08:54:03.731Z,15.79
2023-01-30T08:55:03.741Z,15.79
2023-01-30T08:56:03.695Z,15.79
2023-01-30T08:57:03.721Z,15.79
2023-01-30T08:58:03.668Z,15.80
2023-01-30T08:59:03.674Z,15.79
2023-01-30T09:00:03.662Z,15.80
2023-01-30T09:01:03.791Z,15.80
2023-01-30T09:02:03.650Z,15.82
2023-01-30T09:03:03.641Z,15.80
2023-01-30T09:04:03.641Z,15.80
2023-01-30T09:05:03.619Z,15.83
2023-01-30T09:06:03.603Z,15.82
2023-01-30T09:07:03.625Z,15.83
2023-01-30T09:08:03.606Z,15.83
2023-01-30T09:09:03.580Z,15.84
2023-01-30T09:10:03.577Z,15.84
2023-01-30T09:11:03.575Z,15.84
2023-01-30T09:12:03.557Z,15.84
2023-01-30T09:13:03.560Z,15.84
2023-01-30T09:14:03.508Z,15.88
2023-01-30T09:15:03.492Z,15.86
2023-01-30T09:16:03.509Z,15.88
2023-01-30T09:17:03.524Z,15.88
2023-01-30T09:18:03.477Z,15.88
2023-01-30T09:19:03.469Z,15.88
2023-01-30T09:20:03.462Z,15.88
2023-01-30T09:21:03.457Z,15.90
2023-01-30T09:22:03.430Z,15.88
2023-01-30T09:23:03.415Z,15.88
2023-01-30T09:24:03.410Z,15.88
2023-01-30T09:25:03.408Z,15.88
2023-01-30T09:26:03.371Z,15.90
2023-01-30T09:27:03.408Z,15.90
2023-01-30T09:28:03.388Z,15.91
2023-01-30T09:29:03.357Z,15.92
2023-01-30T09:30:03.366Z,15.91
2023-01-30T09:31:03.420Z,15.91
2023-01-30T09:32:03.324Z,15.91
2023-01-30T09:33:03.336Z,15.91
2023-01-30T09:34:03.293Z,15.92
2023-01-30T09:35:03.298Z,15.92
2023-01-30T09:36:03.274Z,15.92
2023-01-30T09:37:04.948Z,15.92
2023-01-30T09:38:03.304Z,15.92
2023-01-30T09:39:03.288Z,15.94
2023-01-30T09:40:03.243Z,15.92
2023-01-30T09:41:03.231Z,15.92
2023-01-30T09:42:03.259Z,15.94
2023-01-30T09:43:03.204Z,15.92
2023-01-30T09:44:03.193Z,15.92
2023-01-30T09:45:03.169Z,15.92
2023-01-30T09:46:03.196Z,15.92
2023-01-30T09:47:03.173Z,15.92
2023-01-30T09:48:03.190Z,15.94
2023-01-30T09:49:03.125Z,15.94
2023-01-30T09:50:03.124Z,15.95
2023-01-30T09:51:03.135Z,15.94
2023-01-30T09:52:03.112Z,15.95
2023-01-30T09:53:03.119Z,15.95
2023-01-30T09:54:03.103Z,15.97
2023-01-30T09:55:03.076Z,15.97
2023-01-30T09:56:03.078Z,15.98
2023-01-30T09:57:03.042Z,15.98
2023-01-30T09:58:03.031Z,15.98
2023-01-30T09:59:03.030Z,15.98
2023-01-30T10:00:03.059Z,16.00
2023-01-30T10:01:02.997Z,16.00
2023-01-30T10:02:03.011Z,16.01
2023-01-30T10:03:03.032Z,16.01
2023-01-30T10:04:03.051Z,16.01
2023-01-30T10:05:03.072Z,16.01
2023-01-30T10:06:02.930Z,16.01
2023-01-30T10:07:02.930Z,16.01
2023-01-30T10:08:02.933Z,16.00
2023-01-30T10:09:02.948Z,16.00
2023-01-30T10:10:02.901Z,16.01
2023-01-30T10:11:10.823Z,16.01
2023-01-30T10:12:03.909Z,16.04
2023-01-30T10:13:02.876Z,16.04
2023-01-30T10:14:02.923Z,16.05
2023-01-30T10:15:02.886Z,16.05
2023-01-30T10:16:02.889Z,16.05
2023-01-30T10:17:02.843Z,16.08
2023-01-30T10:18:02.834Z,16.05
2023-01-30T10:19:02.840Z,16.09
2023-01-30T10:20:02.825Z,16.09
2023-01-30T10:21:02.889Z,16.09
2023-01-30T10:22:02.785Z,16.08
2023-01-30T10:23:02.791Z,16.09
2023-01-30T10:24:02.753Z,16.08
2023-01-30T10:25:02.770Z,16.09
2023-01-30T10:26:02.762Z,16.09
2023-01-30T10:27:04.740Z,16.10
2023-01-30T10:28:02.698Z,16.09
2023-01-30T10:29:07.801Z,16.12
2023-01-30T10:30:03.684Z,16.12
2023-01-30T10:31:02.752Z,16.12
2023-01-30T10:32:02.705Z,16.10
2023-01-30T10:33:02.677Z,16.12
2023-01-30T10:34:02.673Z,16.12
2023-01-30T10:35:02.676Z,16.13
2023-01-30T10:36:02.652Z,16.13
2023-01-30T10:37:02.626Z,16.13
2023-01-30T10:38:02.632Z,16.13
2023-01-30T10:39:02.628Z,16.15
2023-01-30T10:40:02.583Z,16.15
2023-01-30T10:41:02.594Z,16.16
2023-01-30T10:42:02.575Z,16.15
2023-01-30T10:43:02.635Z,16.16
2023-01-30T10:44:02.578Z,16.16
2023-01-30T10:45:02.520Z,16.17
2023-01-30T10:46:02.515Z,16.16
2023-01-30T10:47:02.474Z,16.16
2023-01-30T10:48:02.483Z,16.17
2023-01-30T10:49:02.488Z,16.17
2023-01-30T10:50:02.493Z,16.17
2023-01-30T10:51:02.433Z,16.17
2023-01-30T10:52:02.447Z,16.17
2023-01-30T10:53:02.469Z,16.20
2023-01-30T10:54:02.444Z,16.20
2023-01-30T10:55:02.427Z,16.20
2023-01-30T10:56:02.410Z,16.17
2023-01-30T10:57:02.445Z,16.20
2023-01-30T10:58:02.442Z,16.21
2023-01-30T10:59:02.370Z,16.23
2023-01-30T11:00:02.438Z,16.23
2023-01-30T11:01:02.377Z,16.21
2023-01-30T11:02:02.381Z,16.21
2023-01-30T11:03:02.373Z,16.21
2023-01-30T11:04:02.317Z,16.23
2023-01-30T11:05:02.349Z,16.23
2023-01-30T11:06:02.274Z,16.23
2023-01-30T11:07:02.313Z,16.23
2023-01-30T11:08:02.294Z,16.23
2023-01-30T11:09:02.340Z,16.24
2023-01-30T11:10:02.224Z,16.23
2023-01-30T11:11:02.245Z,16.26
2023-01-30T11:12:02.263Z,16.24
2023-01-30T11:13:02.247Z,16.26
2023-01-30T11:14:02.222Z,16.26
2023-01-30T11:15:02.184Z,16.26
2023-01-30T11:16:02.239Z,16.28
2023-01-30T11:17:02.216Z,16.29
2023-01-30T11:18:24.251Z,16.31
2023-01-30T11:19:21.208Z,16.29
2023-01-30T11:20:03.186Z,16.28
2023-01-30T11:21:02.126Z,16.31
2023-01-30T11:22:02.110Z,16.29
2023-01-30T11:23:02.126Z,16.29
2023-01-30T11:24:02.085Z,16.29
2023-01-30T11:25:02.086Z,16.29
2023-01-30T11:26:10.855Z,16.29
2023-01-30T11:27:03.086Z,16.32
2023-01-30T11:28:02.051Z,16.31
2023-01-30T11:29:02.071Z,16.33
2023-01-30T11:30:02.012Z,16.32
2023-01-30T11:31:02.093Z,16.33
2023-01-30T11:32:02.079Z,16.36
2023-01-30T11:33:02.022Z,16.36
2023-01-30T11:34:01.991Z,16.39
2023-01-30T11:35:01.999Z,16.39
2023-01-30T11:36:03.729Z,16.41
2023-01-30T11:37:01.922Z,16.43
2023-01-30T11:38:01.924Z,16.47
2023-01-30T11:39:01.976Z,16.50
2023-01-30T11:40:01.912Z,16.50
2023-01-30T11:41:01.917Z,16.50
2023-01-30T11:42:01.906Z,16.51
2023-01-30T11:43:01.944Z,16.53
2023-01-30T11:44:01.891Z,16.53
2023-01-30T11:45:16.595Z,16.54
2023-01-30T11:46:02.890Z,16.54
2023-01-30T11:47:01.919Z,16.56
2023-01-30T11:48:05.175Z,16.56
2023-01-30T11:49:44.663Z,16.56
2023-01-30T11:50:09.954Z,16.54
2023-01-30T11:51:03.178Z,16.54
2023-01-30T11:52:01.811Z,16.54
2023-01-30T11:53:01.763Z,16.54
2023-01-30T11:54:01.748Z,16.54
2023-01-30T11:55:01.795Z,16.53
2023-01-30T11:56:06.414Z,16.54
2023-01-30T11:57:02.721Z,16.51
2023-01-30T11:58:01.721Z,16.51
2023-01-30T11:59:01.700Z,16.51
2023-01-30T12:00:01.830Z,16.51
2023-01-30T12:01:01.703Z,16.51
2023-01-30T12:02:01.744Z,16.53
2023-01-30T12:03:01.679Z,16.53
2023-01-30T12:04:01.674Z,16.53
2023-01-30T12:05:01.631Z,16.53
2023-01-30T12:06:01.629Z,16.53
2023-01-30T12:07:01.616Z,16.53
2023-01-30T12:08:01.621Z,16.53
2023-01-30T12:09:01.610Z,16.53
2023-01-30T12:10:01.604Z,16.53
2023-01-30T12:11:01.582Z,16.54
2023-01-30T12:12:01.569Z,16.53
2023-01-30T12:13:01.559Z,16.54
2023-01-30T12:14:01.570Z,16.53
2023-01-30T12:15:01.568Z,16.54
2023-01-30T12:16:01.531Z,16.54
2023-01-30T12:17:01.569Z,16.56
2023-01-30T12:18:01.557Z,16.56
2023-01-30T12:19:01.494Z,16.54
2023-01-30T12:20:01.483Z,16.54
2023-01-30T12:21:01.463Z,16.54
2023-01-30T12:22:01.477Z,16.54
2023-01-30T12:23:01.455Z,16.56
2023-01-30T12:24:01.480Z,16.56
2023-01-30T12:25:01.401Z,16.56
2023-01-30T12:26:01.401Z,16.56
2023-01-30T12:27:01.569Z,16.53
2023-01-30T12:28:03.501Z,16.56
2023-01-30T12:29:01.372Z,16.56
2023-01-30T12:30:01.412Z,16.54
2023-01-30T12:31:01.359Z,16.54
2023-01-30T12:32:01.348Z,16.53
2023-01-30T12:34:01.357Z,16.94
2023-01-30T12:35:01.304Z,17.42
2023-01-30T12:36:01.438Z,17.83
2023-01-30T12:37:01.505Z,18.10
2023-01-30T12:38:01.309Z,18.35
2023-01-30T12:39:01.280Z,18.29
2023-01-30T12:40:01.326Z,18.22
2023-01-30T12:41:01.224Z,18.20
2023-01-30T12:42:01.246Z,17.92
2023-01-30T12:43:01.203Z,18.18
2023-01-30T12:44:01.243Z,18.44
2023-01-30T12:45:01.183Z,18.47
2023-01-30T12:46:01.257Z,18.29
2023-01-30T12:47:01.887Z,18.16
2023-01-30T12:48:01.161Z,18.13
2023-01-30T12:50:02.155Z,17.79
2023-01-30T12:51:01.123Z,17.65
2023-01-30T12:52:01.151Z,17.56
2023-01-30T12:53:01.135Z,17.45
2023-01-30T12:54:01.105Z,17.39